Terminal Aerodrome Forecast
Issued by NWS

Home | Current Version | Previous Version | Graphics & Text | Print | Product List | Glossary On
Versions: 1 2 3 4 5 6 7 8 9 10 11 12 13 14 15 16
000
FTUS43 KMPX 300500
TAFRWF
TAF
KRWF 300520Z 3006/3106 27003KT P6SM FEW006 SCT015 OVC035
      TEMPO 3006/3009 BKN020
     FM300900 32005KT 3SM BR OVC006
     FM301600 32005KT P6SM BKN010
     FM301800 32004KT P6SM BKN020
     FM302100 VRB03KT P6SM FEW020=

USA.gov is the U.S. government's official web portal to all federal, state and local government web resources and services.